Hundred, West Virginia
Current Conditions -  °F | °C
As of 12:53 PM on Thursday 18 Dec 2014 (Local Time) from KCKB Reporting Station
Overcast Overcast  
Wind Chill: 22°   Ceiling: 2100
Heat Index: 28°   Visibility: 10mi
Dew Point: 19°   Wind: 6mph
Humidity: 69%   Direction: 210°SSW
Pressure: 30.19"   Gusts: NA
Location:  39.68°N, 80.46°W
Report Text: KCKB 181753Z 21005KT 10SM OVC021 M02/M07 A3019 RMK AO2 SLP232 T10221072 11022 21028 58011
Loading
Personal Weather Stations






























Interactive Weather Map New forecast layout! Learn more

10-Day Weather Forecast

Advertisements
Track Severe Weather on mobile